Time;durP1;ratioP1;P1;durP2;ratioP2;P2;SDS_P1;SDS_P2;PMS_P1;PMS_P2;Temp;Humidity;BMP_temperature;BMP_pressure;BME280_temperature;BME280_humidity;BME280_pressure;Samples;Min_cycle;Max_cycle;Signal;HPM_P1;HPM_P2
2022/07/30 19:39:17;;;;;;;5.88;2.40;;;20.30;90.40;;;;;;4945359;29;20439;-80
2022/07/30 19:41:42;;;;;;;5.18;2.30;;;20.30;90.60;;;;;;4957343;29;20035;-78
2022/07/30 19:44:08;;;;;;;5.63;2.78;;;20.40;90.80;;;;;;4958048;29;20034;-79
2022/07/30 19:46:34;;;;;;;5.68;2.72;;;20.40;91.00;;;;;;4944873;29;20038;-81
2022/07/30 19:49:00;;;;;;;6.57;2.58;;;20.50;91.00;;;;;;4943150;29;20063;-80
2022/07/30 19:51:28;;;;;;;6.60;2.25;;;20.60;91.40;;;;;;4939802;29;20026;-81
2022/07/30 19:53:53;;;;;;;8.85;2.80;;;20.80;91.80;;;;;;4942564;29;20059;-79
2022/07/30 19:56:19;;;;;;;6.70;2.40;;;20.90;91.40;;;;;;4939236;29;20054;-82
2022/07/30 19:58:44;;;;;;;11.60;2.40;;;21.10;91.10;;;;;;4940090;29;20453;-85
2022/07/30 20:01:13;;;;;;;6.15;2.20;;;21.20;91.50;;;;;;4943855;29;20046;-82
2022/07/30 20:03:39;;;;;;;9.88;2.97;;;21.30;91.50;;;;;;4941977;29;20059;-84
2022/07/30 20:06:07;;;;;;;6.30;2.60;;;21.30;91.90;;;;;;4940584;29;20050;-85
2022/07/30 20:08:34;;;;;;;5.88;2.28;;;21.30;91.90;;;;;;4941177;29;20032;-83
2022/07/30 20:11:01;;;;;;;8.65;2.38;;;21.40;92.20;;;;;;4940529;29;20030;-84
2022/07/30 20:13:39;;;;;;;6.80;2.40;;;21.40;92.50;;;;;;5071914;28;20379;-84
2022/07/30 20:16:10;;;;;;;10.00;2.53;;;21.50;92.60;;;;;;5070329;28;20081;-81
2022/07/30 20:18:38;;;;;;;4.35;2.25;;;21.70;92.80;;;;;;5070360;28;20021;-83
2022/07/30 20:21:05;;;;;;;5.55;2.17;;;21.60;92.90;;;;;;5071440;28;20078;-80
2022/07/30 20:23:30;;;;;;;6.70;2.65;;;21.60;93.20;;;;;;5069911;28;20052;-83
2022/07/30 20:25:56;;;;;;;7.53;2.40;;;21.60;93.30;;;;;;5071176;28;20029;-81
2022/07/30 20:28:21;;;;;;;7.18;2.38;;;21.70;93.30;;;;;;5069514;28;20078;-82
2022/07/30 20:30:47;;;;;;;6.90;2.38;;;21.70;93.50;;;;;;5069587;28;20547;-82
2022/07/30 20:33:13;;;;;;;9.00;2.60;;;21.70;93.50;;;;;;5069499;28;20518;-82
2022/07/30 20:35:38;;;;;;;6.35;2.30;;;21.80;93.70;;;;;;5069093;28;20024;-82
2022/07/30 20:38:05;;;;;;;6.95;2.75;;;21.80;93.60;;;;;;5070997;28;20025;-82
2022/07/30 20:40:31;;;;;;;9.88;2.67;;;21.90;93.60;;;;;;5070334;28;20013;-83
2022/07/30 20:42:57;;;;;;;9.68;2.97;;;22.00;93.40;;;;;;5069334;28;20552;-82
2022/07/30 20:45:24;;;;;;;8.13;2.83;;;22.00;93.30;;;;;;5069190;28;20085;-81
2022/07/30 20:47:51;;;;;;;6.47;2.40;;;22.10;93.10;;;;;;5066262;28;20021;-83
2022/07/30 20:50:17;;;;;;;6.50;2.35;;;22.10;93.00;;;;;;5069606;28;20035;-82
2022/07/30 20:52:43;;;;;;;7.70;2.33;;;22.10;92.80;;;;;;5069874;28;20028;-81
2022/07/30 20:55:10;;;;;;;8.40;2.92;;;22.10;92.70;;;;;;5070787;28;20132;-82
2022/07/30 20:57:37;;;;;;;7.57;2.72;;;22.20;92.60;;;;;;5067343;28;20491;-82
2022/07/30 21:00:05;;;;;;;6.80;2.33;;;22.20;92.50;;;;;;5068638;28;20029;-81
2022/07/30 21:02:30;;;;;;;7.18;2.60;;;22.20;92.40;;;;;;5068846;28;20024;-82
2022/07/30 21:04:56;;;;;;;8.98;2.33;;;22.20;92.20;;;;;;5065831;28;20017;-81
2022/07/30 21:07:21;;;;;;;7.90;2.63;;;22.20;92.10;;;;;;5059208;28;20035;-82
2022/07/30 21:09:47;;;;;;;7.32;2.55;;;22.20;91.80;;;;;;5069964;28;20710;-82
2022/07/30 21:12:12;;;;;;;7.80;2.30;;;22.30;91.70;;;;;;5068542;28;20035;-81
2022/07/30 21:14:38;;;;;;;7.40;2.40;;;22.20;91.60;;;;;;5068308;28;20052;-83
2022/07/30 21:17:03;;;;;;;6.43;1.92;;;22.20;91.40;;;;;;5069978;28;20383;-82
2022/07/30 21:19:29;;;;;;;7.40;2.22;;;22.30;91.30;;;;;;5068583;28;20551;-80
2022/07/30 21:21:55;;;;;;;8.20;2.40;;;22.30;91.20;;;;;;5069897;28;20028;-82
2022/07/30 21:24:20;;;;;;;7.43;2.50;;;22.30;91.00;;;;;;5058792;28;20067;-82
2022/07/30 21:26:48;;;;;;;6.50;2.20;;;22.30;90.90;;;;;;5054963;28;20036;-83
2022/07/30 21:29:16;;;;;;;7.65;2.47;;;22.30;90.90;;;;;;5056622;28;20574;-81
2022/07/30 21:31:41;;;;;;;7.18;2.65;;;22.20;91.10;;;;;;5057184;28;20036;-81
2022/07/30 21:34:07;;;;;;;6.40;2.20;;;22.10;91.40;;;;;;5057196;28;20025;-82
2022/07/30 21:36:33;;;;;;;7.10;2.30;;;21.90;91.60;;;;;;5056737;28;20033;-82
2022/07/30 21:38:59;;;;;;;5.93;2.40;;;21.90;91.90;;;;;;5053455;28;20025;-82
2022/07/30 21:41:24;;;;;;;9.07;2.78;;;21.80;92.20;;;;;;5057308;28;20024;-83
2022/07/30 21:43:50;;;;;;;5.55;2.17;;;21.70;92.30;;;;;;5055855;28;20021;-82
2022/07/30 21:46:15;;;;;;;9.05;2.67;;;21.60;92.40;;;;;;5055514;28;20188;-82
2022/07/30 21:48:44;;;;;;;6.72;2.33;;;21.60;92.50;;;;;;5055773;28;20028;-82
2022/07/30 21:51:11;;;;;;;7.28;2.10;;;21.50;92.60;;;;;;5057490;28;20029;-82
2022/07/30 21:53:37;;;;;;;7.10;2.50;;;21.50;92.70;;;;;;5057195;28;20037;-82
2022/07/30 21:56:03;;;;;;;8.00;2.38;;;21.40;92.70;;;;;;5039514;28;20087;-81
2022/07/30 21:58:28;;;;;;;6.90;2.55;;;21.40;92.80;;;;;;5035805;28;20427;-80
2022/07/30 22:00:54;;;;;;;7.40;2.38;;;21.40;92.90;;;;;;5038342;28;20034;-77
2022/07/30 22:03:21;;;;;;;6.45;2.15;;;21.30;92.90;;;;;;5041607;28;20044;-80
2022/07/30 22:05:46;;;;;;;8.68;2.40;;;21.30;92.90;;;;;;5056681;28;20090;-80
2022/07/30 22:08:14;;;;;;;6.85;2.15;;;21.30;93.00;;;;;;5055184;28;20041;-81
2022/07/30 22:10:41;;;;;;;6.05;2.15;;;21.30;92.90;;;;;;5055086;28;20108;-82
2022/07/30 22:13:08;;;;;;;6.10;2.30;;;21.30;92.90;;;;;;5055052;28;20025;-81
2022/07/30 22:15:33;;;;;;;7.05;2.33;;;21.20;92.80;;;;;;5056103;28;20025;-80
2022/07/30 22:17:59;;;;;;;6.07;2.05;;;21.30;92.80;;;;;;5054768;28;20028;-80
2022/07/30 22:20:26;;;;;;;6.78;2.10;;;21.30;92.70;;;;;;5054659;28;20017;-80
2022/07/30 22:23:00;;;;;;;5.63;2.30;;;21.30;92.70;;;;;;5056057;28;20033;-80
2022/07/30 22:25:25;;;;;;;7.72;2.50;;;21.20;92.70;;;;;;5056071;28;20067;-80
2022/07/30 22:27:52;;;;;;;7.40;2.50;;;21.20;92.70;;;;;;5054779;28;20033;-80
2022/07/30 22:30:18;;;;;;;7.68;2.30;;;21.20;92.80;;;;;;5055854;28;20025;-79
2022/07/30 22:32:43;;;;;;;7.70;2.03;;;21.10;92.80;;;;;;5054705;28;20392;-80
2022/07/30 22:35:10;;;;;;;6.85;2.15;;;21.10;92.90;;;;;;5054402;28;20037;-80
2022/07/30 22:37:35;;;;;;;5.88;2.17;;;21.10;92.90;;;;;;5055869;28;20100;-80
2022/07/30 22:40:03;;;;;;;7.00;2.33;;;21.00;93.00;;;;;;5054893;28;20060;-80
2022/07/30 22:42:28;;;;;;;6.05;2.25;;;21.00;93.00;;;;;;5055729;28;20443;-80
2022/07/30 22:44:54;;;;;;;7.05;2.53;;;21.00;92.90;;;;;;5054225;28;20025;-80
2022/07/30 22:47:20;;;;;;;4.97;2.17;;;21.00;92.90;;;;;;5054211;28;20502;-80
2022/07/30 22:49:45;;;;;;;5.95;2.20;;;21.00;92.90;;;;;;5055632;28;20021;-80
2022/07/30 22:52:11;;;;;;;5.82;2.03;;;21.00;92.90;;;;;;5054110;28;20392;-80
2022/07/30 22:54:36;;;;;;;5.35;2.00;;;20.90;92.90;;;;;;5053990;28;20025;-80
2022/07/30 22:57:02;;;;;;;6.05;2.10;;;20.90;92.90;;;;;;5054060;28;20021;-80
2022/07/30 22:59:28;;;;;;;6.63;2.40;;;21.00;92.90;;;;;;5055428;28;20100;-81
2022/07/30 23:01:53;;;;;;;4.65;1.80;;;21.00;92.80;;;;;;5053979;28;20082;-81
2022/07/30 23:04:19;;;;;;;5.57;2.13;;;21.00;92.70;;;;;;5054175;28;20021;-81
2022/07/30 23:06:45;;;;;;;5.25;2.08;;;21.00;92.60;;;;;;5053347;28;20025;-80
2022/07/30 23:09:11;;;;;;;6.18;2.15;;;21.00;92.60;;;;;;5054774;28;20492;-81
2022/07/30 23:11:37;;;;;;;6.18;2.08;;;21.00;92.60;;;;;;5054804;28;22042;-80
2022/07/30 23:14:07;;;;;;;8.05;2.45;;;20.90;92.80;;;;;;5055164;28;20436;-80
2022/07/30 23:16:36;;;;;;;5.78;1.90;;;20.90;92.60;;;;;;5054873;28;20031;-80
2022/07/30 23:19:03;;;;;;;6.05;2.05;;;20.90;92.70;;;;;;5053830;28;20021;-80
2022/07/30 23:21:29;;;;;;;5.60;2.00;;;20.90;92.70;;;;;;5055748;28;20036;-80
2022/07/30 23:23:54;;;;;;;5.75;2.08;;;20.90;92.80;;;;;;5054036;28;20024;-80
2022/07/30 23:26:20;;;;;;;4.32;1.80;;;20.80;92.80;;;;;;5055131;28;20021;-80
2022/07/30 23:28:46;;;;;;;6.65;2.13;;;20.80;92.80;;;;;;5053907;28;20021;-80
2022/07/30 23:31:12;;;;;;;6.32;2.03;;;20.80;92.80;;;;;;5053879;28;20017;-80
2022/07/30 23:33:38;;;;;;;5.55;2.10;;;20.80;92.80;;;;;;5053766;28;20032;-80
2022/07/30 23:36:04;;;;;;;4.65;1.92;;;20.80;92.80;;;;;;5055234;28;20383;-80
2022/07/30 23:38:30;;;;;;;3.90;1.60;;;20.70;92.80;;;;;;5055239;28;20549;-80
2022/07/30 23:41:00;;;;;;;3.53;1.83;;;20.70;92.80;;;;;;5053616;28;20017;-80
2022/07/30 23:43:25;;;;;;;5.15;2.10;;;20.70;92.80;;;;;;5055045;28;20017;-80
2022/07/30 23:45:51;;;;;;;4.18;1.88;;;20.80;92.80;;;;;;5053775;28;20119;-81
2022/07/30 23:48:17;;;;;;;4.07;1.88;;;20.80;92.70;;;;;;5053369;28;20025;-80
2022/07/30 23:50:43;;;;;;;5.63;2.10;;;20.80;92.60;;;;;;5053742;28;20025;-80
2022/07/30 23:53:09;;;;;;;6.13;2.00;;;20.80;92.60;;;;;;5053405;28;20446;-80
2022/07/30 23:55:36;;;;;;;6.32;2.35;;;20.70;92.50;;;;;;5054494;28;20048;-80
2022/07/30 23:58:02;;;;;;;5.38;1.90;;;20.80;92.50;;;;;;5053578;28;20506;-81
